Time;durP1;ratioP1;P1;durP2;ratioP2;P2;SDS_P1;SDS_P2;PMS_P1;PMS_P2;Temp;Humidity;BMP_temperature;BMP_pressure;BME280_temperature;BME280_humidity;BME280_pressure;Samples;Min_cycle;Max_cycle;Signal;HPM_P1;HPM_P2
2022/10/21 00:00:14;;;;;;;10.23;6.17;;;9.50;99.90;;;;;;5096845;28;20207;-70
2022/10/21 00:02:40;;;;;;;8.90;6.40;;;9.40;99.90;;;;;;5095297;28;20209;-70
2022/10/21 00:05:05;;;;;;;10.80;5.80;;;9.40;99.90;;;;;;5079315;28;20194;-71
2022/10/21 00:07:32;;;;;;;9.63;6.03;;;9.50;99.90;;;;;;5098660;28;20327;-70
2022/10/21 00:09:58;;;;;;;11.67;6.37;;;9.60;99.90;;;;;;5096344;28;20208;-70
2022/10/21 00:12:23;;;;;;;9.23;6.03;;;9.60;99.90;;;;;;5075144;28;20203;-70
2022/10/21 00:14:49;;;;;;;10.60;6.17;;;9.50;99.90;;;;;;5095835;28;20304;-70
2022/10/21 00:17:15;;;;;;;11.17;6.70;;;9.50;99.90;;;;;;5078264;28;20648;-69
2022/10/21 00:19:41;;;;;;;9.67;6.53;;;9.60;99.90;;;;;;5094517;28;20298;-70
2022/10/21 00:22:07;;;;;;;10.10;6.27;;;9.60;99.90;;;;;;5090605;28;20263;-71
2022/10/21 00:24:32;;;;;;;10.03;5.97;;;9.50;99.90;;;;;;5098447;28;20606;-70
2022/10/21 00:26:58;;;;;;;11.73;6.73;;;9.60;99.90;;;;;;5097123;28;20628;-70
2022/10/21 00:29:23;;;;;;;9.27;5.97;;;9.60;99.90;;;;;;5092424;28;20608;-70
2022/10/21 00:31:52;;;;;;;8.97;6.23;;;9.60;99.90;;;;;;5082559;28;20770;-70
2022/10/21 00:34:18;;;;;;;10.20;6.27;;;9.60;99.90;;;;;;5097058;28;20213;-70
2022/10/21 00:36:43;;;;;;;9.07;5.50;;;9.60;99.90;;;;;;5076696;28;20767;-70
2022/10/21 00:39:09;;;;;;;11.73;6.73;;;9.60;99.90;;;;;;5089677;28;20300;-69
2022/10/21 00:41:35;;;;;;;9.17;6.17;;;9.60;99.90;;;;;;5093006;28;20189;-70
2022/10/21 00:44:06;;;;;;;11.50;6.63;;;9.60;99.90;;;;;;5096602;28;20245;-70
2022/10/21 00:46:45;;;;;;;10.17;6.43;;;9.60;99.90;;;;;;5090322;28;20213;-70
2022/10/21 00:49:23;;;;;;;8.60;6.23;;;9.60;99.90;;;;;;5097316;23;20261;-70
2022/10/21 00:51:51;;;;;;;8.53;6.00;;;9.70;99.90;;;;;;5091588;28;20304;-68
2022/10/21 00:54:19;;;;;;;9.70;5.93;;;9.60;99.90;;;;;;5100085;28;20194;-70
2022/10/21 00:56:46;;;;;;;7.90;5.70;;;9.60;99.90;;;;;;5095352;28;20178;-68
2022/10/21 00:59:12;;;;;;;10.70;6.70;;;9.50;99.90;;;;;;5077993;28;20187;-67
2022/10/21 01:01:38;;;;;;;12.93;6.13;;;9.50;99.90;;;;;;5094570;28;20206;-68
2022/10/21 01:04:04;;;;;;;8.77;6.13;;;9.50;99.90;;;;;;5102097;28;20632;-69
2022/10/21 01:06:31;;;;;;;9.80;6.73;;;9.50;99.90;;;;;;5100956;28;20649;-68
2022/10/21 01:08:58;;;;;;;10.07;6.50;;;9.50;99.90;;;;;;5095997;28;20239;-68
2022/10/21 01:11:25;;;;;;;11.10;6.97;;;9.40;99.90;;;;;;5097474;28;20213;-68
2022/10/21 01:14:00;;;;;;;10.80;6.47;;;9.40;99.90;;;;;;5099272;28;20231;-68
2022/10/21 01:16:35;;;;;;;9.57;6.77;;;9.50;99.90;;;;;;5095638;28;20249;-69
2022/10/21 01:19:15;;;;;;;12.50;7.00;;;9.60;99.90;;;;;;5093121;28;20771;-68
2022/10/21 01:22:05;;;;;;;9.17;6.50;;;9.50;99.90;;;;;;5099930;28;20724;-69
2022/10/21 01:24:50;;;;;;;11.07;6.30;;;9.50;99.90;;;;;;5097683;28;20218;-69
2022/10/21 01:27:22;;;;;;;13.43;6.83;;;9.50;99.90;;;;;;5094703;28;20240;-68
2022/10/21 01:30:37;;;;;;;11.43;7.30;;;9.50;99.90;;;;;;5095820;28;20623;-69
2022/10/21 01:33:35;;;;;;;10.03;6.87;;;9.50;99.90;;;;;;5015549;28;20213;-68
2022/10/21 01:36:13;;;;;;;15.57;7.00;;;9.50;99.90;;;;;;4994351;28;20212;-67
2022/10/21 01:38:42;;;;;;;11.70;6.67;;;9.40;99.90;;;;;;5087011;28;20585;-68
2022/10/21 01:41:19;;;;;;;9.37;6.97;;;9.50;99.90;;;;;;5074747;28;20198;-68
2022/10/21 01:43:55;;;;;;;11.00;7.27;;;9.50;99.90;;;;;;5094727;28;20228;-68
2022/10/21 01:46:29;;;;;;;9.93;6.63;;;9.50;99.90;;;;;;5070978;28;20548;-67
2022/10/21 01:49:12;;;;;;;13.13;6.80;;;9.60;99.90;;;;;;5097425;28;20230;-70
2022/10/21 01:51:39;;;;;;;10.60;6.93;;;9.60;99.90;;;;;;5097879;28;20209;-69
2022/10/21 01:54:22;;;;;;;11.27;6.87;;;9.60;99.90;;;;;;5098593;28;20595;-69
2022/10/21 01:56:48;;;;;;;10.60;7.10;;;9.60;99.90;;;;;;5095900;28;20541;-69
2022/10/21 01:59:16;;;;;;;9.90;6.60;;;9.70;99.90;;;;;;5097518;28;20186;-69
2022/10/21 02:01:44;;;;;;;10.83;7.03;;;9.70;99.90;;;;;;5093528;28;20213;-68
2022/10/21 02:04:12;;;;;;;9.77;6.47;;;9.70;99.90;;;;;;5101671;28;20228;-69
2022/10/21 02:06:37;;;;;;;10.40;6.80;;;9.60;99.90;;;;;;5092871;28;20234;-68
2022/10/21 02:09:03;;;;;;;11.10;6.73;;;9.60;99.90;;;;;;5095153;28;20291;-68
2022/10/21 02:11:31;;;;;;;9.70;6.73;;;9.60;99.90;;;;;;5095355;28;20532;-69
2022/10/21 02:14:02;;;;;;;12.47;6.67;;;9.70;99.90;;;;;;5098381;28;20628;-69
2022/10/21 02:16:32;;;;;;;9.57;6.40;;;9.60;99.90;;;;;;5096068;28;20217;-68
2022/10/21 02:18:59;;;;;;;8.30;6.43;;;9.60;99.90;;;;;;5091244;28;20216;-69
2022/10/21 02:21:30;;;;;;;12.57;7.20;;;9.60;99.90;;;;;;5070331;28;20758;-68
2022/10/21 02:24:31;;;;;;;9.67;6.70;;;9.50;99.90;;;;;;5096901;28;20675;-68
2022/10/21 02:26:57;;;;;;;11.57;7.87;;;9.50;99.90;;;;;;5080595;28;20198;-68
2022/10/21 02:29:28;;;;;;;12.07;6.93;;;9.50;99.90;;;;;;5098784;28;20664;-69
2022/10/21 02:32:07;;;;;;;10.13;6.80;;;9.50;99.90;;;;;;5097058;28;20198;-67
2022/10/21 02:34:45;;;;;;;12.90;7.10;;;9.60;99.90;;;;;;5090623;28;20198;-68
2022/10/21 02:37:26;;;;;;;9.47;7.07;;;9.60;99.90;;;;;;5098585;28;20206;-69
2022/10/21 02:39:57;;;;;;;11.70;7.03;;;9.70;99.90;;;;;;5094484;28;20220;-68
2022/10/21 02:42:30;;;;;;;12.43;7.47;;;9.60;99.90;;;;;;5093318;28;20715;-69
2022/10/21 02:44:55;;;;;;;11.77;6.87;;;9.70;99.90;;;;;;5089658;28;20262;-69
2022/10/21 02:47:24;;;;;;;11.23;7.10;;;9.70;99.90;;;;;;5080976;28;20261;-68
2022/10/21 02:49:50;;;;;;;11.20;7.53;;;9.70;99.90;;;;;;5077140;28;20232;-69
2022/10/21 02:52:16;;;;;;;13.83;8.37;;;9.70;99.90;;;;;;5094095;28;20296;-68
2022/10/21 02:54:41;;;;;;;10.60;7.23;;;9.70;99.90;;;;;;5099092;28;20297;-68
2022/10/21 02:57:07;;;;;;;12.17;7.33;;;9.70;99.90;;;;;;5086115;28;20206;-69
2022/10/21 02:59:32;;;;;;;14.13;7.30;;;9.70;99.90;;;;;;5087336;28;20575;-69
2022/10/21 03:01:58;;;;;;;11.33;7.07;;;9.60;99.90;;;;;;5090758;28;20236;-68
2022/10/21 03:04:24;;;;;;;11.90;7.73;;;9.70;99.90;;;;;;5091174;28;20246;-68
2022/10/21 03:06:49;;;;;;;10.37;7.20;;;9.70;99.90;;;;;;5091226;28;20214;-68
2022/10/21 03:09:15;;;;;;;11.83;7.47;;;9.70;99.90;;;;;;5090600;28;20214;-66
2022/10/21 03:11:40;;;;;;;11.33;7.10;;;9.70;99.90;;;;;;5069306;28;20186;-69
2022/10/21 03:14:06;;;;;;;9.90;7.50;;;9.70;99.90;;;;;;5091303;28;20175;-69
2022/10/21 03:16:31;;;;;;;12.57;8.00;;;9.80;99.90;;;;;;5090671;28;20305;-69
2022/10/21 03:18:57;;;;;;;10.40;6.80;;;9.80;99.90;;;;;;5080986;28;20755;-68
2022/10/21 03:21:22;;;;;;;10.40;7.13;;;9.80;99.90;;;;;;5090588;28;20217;-68
2022/10/21 03:23:48;;;;;;;13.67;7.87;;;9.90;99.90;;;;;;5090953;28;20206;-68
2022/10/21 03:26:13;;;;;;;14.20;7.57;;;9.90;99.90;;;;;;5091044;28;20174;-67
2022/10/21 03:28:39;;;;;;;11.67;7.30;;;9.80;99.90;;;;;;5066953;28;20214;-68
2022/10/21 03:31:04;;;;;;;13.67;8.80;;;9.90;99.90;;;;;;5066077;28;20207;-68
2022/10/21 03:33:30;;;;;;;16.07;8.03;;;9.80;99.90;;;;;;5069363;28;20270;-68
2022/10/21 03:35:55;;;;;;;13.90;7.60;;;9.80;99.90;;;;;;5080500;28;20187;-68
2022/10/21 03:38:21;;;;;;;11.53;8.07;;;9.90;99.90;;;;;;5091119;28;20186;-69
2022/10/21 03:40:48;;;;;;;9.50;7.83;;;9.90;99.90;;;;;;5067787;28;20221;-68
2022/10/21 03:43:14;;;;;;;11.43;7.90;;;9.90;99.90;;;;;;5090382;28;20214;-68
2022/10/21 03:45:39;;;;;;;12.90;8.87;;;9.90;99.90;;;;;;5090414;28;20312;-69
2022/10/21 03:48:05;;;;;;;11.03;8.13;;;9.90;99.90;;;;;;5090501;28;20220;-69
2022/10/21 03:50:30;;;;;;;11.40;8.50;;;9.90;99.90;;;;;;5090609;28;20217;-69
2022/10/21 03:52:58;;;;;;;12.10;8.50;;;9.90;99.90;;;;;;5090280;28;20205;-68
2022/10/21 03:55:24;;;;;;;12.90;8.63;;;9.90;99.90;;;;;;5065996;28;20327;-68
2022/10/21 03:57:50;;;;;;;12.77;8.43;;;10.00;99.90;;;;;;5069044;28;20210;-68
2022/10/21 04:00:16;;;;;;;10.73;8.10;;;10.00;99.90;;;;;;5089265;28;20218;-68
2022/10/21 04:02:42;;;;;;;12.43;8.00;;;10.00;99.90;;;;;;5090366;28;20194;-69
2022/10/21 04:05:08;;;;;;;12.20;8.10;;;10.00;99.90;;;;;;5090586;28;20679;-69
2022/10/21 04:07:34;;;;;;;12.37;8.60;;;10.00;99.90;;;;;;5090120;28;20241;-69
2022/10/21 04:09:59;;;;;;;11.70;8.40;;;10.00;99.90;;;;;;5089702;28;20230;-68
2022/10/21 04:12:25;;;;;;;11.93;8.20;;;10.00;99.90;;;;;;5090232;28;20241;-69
2022/10/21 04:14:50;;;;;;;15.33;8.43;;;10.00;99.90;;;;;;5090234;28;20632;-69
2022/10/21 04:17:16;;;;;;;13.43;8.50;;;10.00;99.90;;;;;;5090456;28;20166;-68
2022/10/21 04:19:42;;;;;;;13.17;8.57;;;10.00;99.90;;;;;;5089886;28;20589;-69
2022/10/21 04:22:08;;;;;;;11.80;8.50;;;10.00;99.90;;;;;;5089997;28;20198;-69
2022/10/21 04:24:33;;;;;;;14.77;8.87;;;10.00;99.90;;;;;;5075365;28;20237;-68
2022/10/21 04:26:59;;;;;;;12.53;8.57;;;9.90;99.90;;;;;;5089793;28;20257;-69
2022/10/21 04:29:24;;;;;;;11.43;8.83;;;9.90;99.90;;;;;;5090663;28;20335;-69
2022/10/21 04:31:50;;;;;;;15.33;9.40;;;9.90;99.90;;;;;;5089934;28;20255;-69
2022/10/21 04:34:15;;;;;;;14.00;9.30;;;9.90;99.90;;;;;;5091663;28;20202;-68
2022/10/21 04:36:41;;;;;;;13.03;9.63;;;9.90;99.90;;;;;;5071519;28;20281;-69
2022/10/21 04:39:06;;;;;;;11.73;8.83;;;9.90;99.90;;;;;;5093753;28;20826;-69
2022/10/21 04:41:32;;;;;;;15.13;9.47;;;9.90;99.90;;;;;;5094051;28;20182;-69
2022/10/21 04:43:57;;;;;;;14.73;8.90;;;9.90;99.90;;;;;;5093442;28;20209;-69
2022/10/21 04:46:23;;;;;;;16.00;9.57;;;9.90;99.90;;;;;;5094010;28;20263;-69
2022/10/21 04:48:48;;;;;;;16.53;10.27;;;10.00;99.90;;;;;;5070524;28;20692;-69
2022/10/21 04:51:14;;;;;;;11.50;8.73;;;10.00;99.90;;;;;;5093300;28;20282;-68
2022/10/21 04:53:40;;;;;;;14.67;9.10;;;10.00;99.90;;;;;;5093918;28;20281;-69
2022/10/21 04:56:05;;;;;;;12.03;9.20;;;10.00;99.90;;;;;;5094340;28;20597;-69
2022/10/21 04:58:31;;;;;;;13.70;9.80;;;10.00;99.90;;;;;;5094941;28;20218;-69
2022/10/21 05:00:56;;;;;;;11.10;8.00;;;10.10;99.90;;;;;;5093007;28;20593;-68
2022/10/21 05:03:22;;;;;;;11.27;9.10;;;10.10;99.90;;;;;;5093634;28;20236;-69
2022/10/21 05:05:49;;;;;;;12.07;8.80;;;10.00;99.90;;;;;;5091681;28;20194;-69
2022/10/21 05:08:15;;;;;;;14.60;9.30;;;10.00;99.90;;;;;;5098175;28;20180;-68
2022/10/21 05:10:40;;;;;;;13.87;9.37;;;10.10;99.90;;;;;;5094081;28;20209;-68
2022/10/21 05:13:06;;;;;;;13.20;9.20;;;10.00;99.90;;;;;;5083645;28;20293;-68
2022/10/21 05:15:32;;;;;;;13.83;9.63;;;10.00;99.90;;;;;;5098261;28;20320;-69
2022/10/21 05:17:58;;;;;;;14.57;10.57;;;10.00;99.90;;;;;;5093248;28;20263;-68
2022/10/21 05:20:24;;;;;;;17.40;9.63;;;10.00;99.90;;;;;;5100953;28;20213;-69
2022/10/21 05:22:50;;;;;;;13.53;9.43;;;10.00;99.90;;;;;;5098492;28;20252;-68
2022/10/21 05:25:16;;;;;;;13.53;9.90;;;10.00;99.90;;;;;;5097794;28;20206;-68
2022/10/21 05:27:42;;;;;;;13.10;9.10;;;10.00;99.90;;;;;;5093782;28;20263;-69
2022/10/21 05:30:08;;;;;;;11.23;8.90;;;10.00;99.90;;;;;;5084575;28;20242;-69
2022/10/21 05:32:34;;;;;;;13.83;10.00;;;10.00;99.90;;;;;;5098116;28;20182;-69
2022/10/21 05:34:59;;;;;;;14.87;10.00;;;10.10;99.90;;;;;;5095612;28;20210;-69
2022/10/21 05:37:25;;;;;;;11.77;9.07;;;10.10;99.90;;;;;;5100693;28;20218;-69
2022/10/21 05:39:50;;;;;;;14.67;9.47;;;10.10;99.90;;;;;;5077105;28;20854;-69
2022/10/21 05:42:16;;;;;;;17.30;10.47;;;10.20;99.90;;;;;;5097488;28;20679;-68
2022/10/21 05:44:41;;;;;;;13.67;9.77;;;10.20;99.90;;;;;;5093143;28;20202;-68
2022/10/21 05:47:07;;;;;;;16.33;9.17;;;10.20;99.90;;;;;;5101928;28;20740;-68
2022/10/21 05:49:33;;;;;;;13.33;9.57;;;10.20;99.90;;;;;;5097393;28;20672;-69
2022/10/21 05:51:58;;;;;;;14.47;10.03;;;10.20;99.90;;;;;;5077345;28;20239;-69
2022/10/21 05:54:24;;;;;;;13.60;9.63;;;10.20;99.90;;;;;;5096321;28;20292;-68
2022/10/21 05:56:49;;;;;;;12.00;9.47;;;10.30;99.90;;;;;;5099091;28;20178;-69
2022/10/21 05:59:15;;;;;;;10.67;8.77;;;10.30;99.90;;;;;;5079572;28;20296;-66
2022/10/21 06:01:41;;;;;;;17.30;9.57;;;10.30;99.90;;;;;;5093866;28;20234;-69
2022/10/21 06:04:06;;;;;;;15.63;10.20;;;10.30;99.90;;;;;;5101377;28;20310;-69
2022/10/21 06:06:32;;;;;;;12.77;9.17;;;10.30;99.90;;;;;;5088092;28;20893;-69
2022/10/21 06:08:58;;;;;;;16.17;10.07;;;10.40;99.90;;;;;;5080182;28;20211;-69
2022/10/21 06:11:23;;;;;;;14.13;9.43;;;10.40;99.90;;;;;;5096339;28;20538;-69
2022/10/21 06:13:49;;;;;;;12.13;8.93;;;10.50;99.90;;;;;;5098101;28;20210;-69
2022/10/21 06:16:15;;;;;;;12.73;9.63;;;10.50;99.90;;;;;;5097710;28;20242;-69
2022/10/21 06:18:42;;;;;;;19.70;9.93;;;10.50;99.90;;;;;;5093478;28;20216;-70
2022/10/21 06:21:08;;;;;;;13.07;8.87;;;10.50;99.90;;;;;;5101473;28;20202;-69
2022/10/21 06:23:34;;;;;;;12.97;8.93;;;10.50;99.90;;;;;;5097701;28;20203;-69
2022/10/21 06:26:06;;;;;;;15.47;9.97;;;10.50;99.90;;;;;;5075329;28;20210;-69
2022/10/21 06:28:34;;;;;;;13.07;9.60;;;10.50;99.90;;;;;;5096423;28;20250;-70
2022/10/21 06:31:00;;;;;;;15.87;9.17;;;10.60;99.90;;;;;;5090742;28;20205;-70
2022/10/21 06:33:26;;;;;;;13.10;8.90;;;10.60;99.90;;;;;;5100513;28;20270;-68
2022/10/21 06:35:51;;;;;;;14.50;10.07;;;10.60;99.90;;;;;;5093657;28;20181;-68
2022/10/21 06:38:17;;;;;;;13.13;10.03;;;10.60;99.90;;;;;;5094938;28;20264;-68
2022/10/21 06:40:43;;;;;;;17.30;9.93;;;10.50;99.90;;;;;;5095998;28;20209;-68
2022/10/21 06:43:09;;;;;;;47.77;32.63;;;10.50;99.90;;;;;;5095386;28;20218;-68
2022/10/21 06:45:35;;;;;;;16.30;10.73;;;10.50;99.90;;;;;;5095976;28;20289;-68
2022/10/21 06:48:00;;;;;;;15.00;9.70;;;10.60;99.90;;;;;;5099102;28;20238;-68
2022/10/21 06:52:58;;;;;;;15.60;9.47;;;10.60;99.90;;;;;;5038614;28;20215;-71
2022/10/21 06:55:24;;;;;;;14.40;10.10;;;10.60;99.90;;;;;;5038090;28;20253;-71
2022/10/21 06:57:50;;;;;;;14.00;10.03;;;10.60;99.90;;;;;;5017936;28;20208;-71
2022/10/21 07:00:16;;;;;;;19.13;10.47;;;10.60;99.90;;;;;;5034394;28;20207;-73
2022/10/21 07:02:41;;;;;;;13.73;9.83;;;10.60;99.90;;;;;;5054226;28;20195;-72
2022/10/21 07:05:07;;;;;;;13.47;10.13;;;10.70;99.90;;;;;;5059461;28;20168;-72
2022/10/21 07:07:33;;;;;;;15.60;9.63;;;10.80;99.90;;;;;;5054949;28;20224;-72
2022/10/21 07:09:59;;;;;;;14.23;10.10;;;10.80;99.90;;;;;;5054616;28;20208;-70
2022/10/21 07:12:26;;;;;;;13.43;9.80;;;10.80;99.90;;;;;;5057797;28;20643;-72
2022/10/21 07:14:51;;;;;;;14.03;9.60;;;10.90;99.90;;;;;;5056116;28;20176;-72
2022/10/21 07:17:17;;;;;;;16.77;10.70;;;11.00;99.90;;;;;;5055275;28;20197;-71
2022/10/21 07:19:43;;;;;;;18.63;10.33;;;11.00;99.90;;;;;;5036754;28;20274;-72
2022/10/21 07:22:08;;;;;;;16.77;9.80;;;11.00;99.90;;;;;;5059376;28;20212;-71
2022/10/21 07:24:34;;;;;;;15.27;10.70;;;10.90;99.90;;;;;;5054415;28;20227;-71
2022/10/21 07:27:00;;;;;;;15.07;11.57;;;10.90;99.90;;;;;;5054655;28;20212;-71
2022/10/21 07:29:26;;;;;;;15.23;10.13;;;10.90;99.90;;;;;;5039791;28;20171;-72
2022/10/21 07:31:52;;;;;;;11.47;9.30;;;11.00;99.90;;;;;;5055747;28;20578;-71
2022/10/21 07:34:18;;;;;;;20.63;10.27;;;11.00;99.90;;;;;;5032904;28;20203;-71
2022/10/21 07:36:47;;;;;;;15.77;10.80;;;11.00;99.90;;;;;;5051368;28;20214;-72
2022/10/21 07:39:15;;;;;;;18.33;10.27;;;11.00;99.90;;;;;;5059021;28;20221;-71
2022/10/21 07:41:44;;;;;;;15.00;9.57;;;11.00;99.90;;;;;;5054028;28;20580;-71
2022/10/21 07:44:09;;;;;;;13.63;10.03;;;11.00;99.90;;;;;;5053142;28;20227;-71
2022/10/21 07:46:37;;;;;;;14.37;10.07;;;11.10;99.90;;;;;;5057872;28;20823;-71
2022/10/21 07:49:03;;;;;;;13.00;9.27;;;11.10;99.90;;;;;;5039320;28;20607;-71
2022/10/21 07:51:29;;;;;;;14.47;10.47;;;11.20;99.90;;;;;;5053197;28;20222;-71
2022/10/21 07:53:56;;;;;;;12.70;9.23;;;11.20;99.90;;;;;;5051060;28;20183;-71
2022/10/21 07:56:25;;;;;;;11.90;10.00;;;11.30;99.90;;;;;;5056217;28;20663;-71
2022/10/21 07:58:52;;;;;;;16.20;10.47;;;11.40;99.90;;;;;;5055140;28;20277;-71
2022/10/21 08:01:18;;;;;;;18.43;10.60;;;11.40;99.90;;;;;;5044288;28;20207;-71
2022/10/21 08:03:45;;;;;;;13.77;10.77;;;11.30;99.90;;;;;;5057167;28;20223;-71
2022/10/21 08:06:12;;;;;;;14.63;10.40;;;11.40;99.90;;;;;;5037291;28;20211;-71
2022/10/21 08:08:38;;;;;;;14.67;10.40;;;11.50;99.90;;;;;;5034216;28;20184;-71
2022/10/21 08:11:05;;;;;;;14.13;9.97;;;11.50;99.90;;;;;;5034674;28;20221;-71
2022/10/21 08:13:31;;;;;;;14.83;10.03;;;11.60;99.90;;;;;;5057827;28;20701;-71
2022/10/21 08:15:56;;;;;;;12.63;10.53;;;11.70;99.90;;;;;;5054403;28;20204;-71
2022/10/21 08:18:24;;;;;;;14.77;10.33;;;11.70;99.90;;;;;;5052273;28;20292;-72
2022/10/21 08:20:50;;;;;;;13.87;10.00;;;11.60;99.90;;;;;;5053920;28;20575;-71
2022/10/21 08:23:18;;;;;;;17.53;9.87;;;11.60;99.90;;;;;;5057750;28;20199;-71
2022/10/21 08:25:51;;;;;;;13.23;10.87;;;11.70;99.90;;;;;;5053318;28;20225;-71
2022/10/21 08:28:18;;;;;;;14.83;10.00;;;11.80;99.90;;;;;;5044081;28;20206;-71
2022/10/21 08:30:44;;;;;;;13.57;11.13;;;12.00;99.90;;;;;;5055508;28;20215;-71
2022/10/21 08:33:10;;;;;;;16.50;10.83;;;12.10;99.90;;;;;;5037497;28;20626;-71
2022/10/21 08:35:37;;;;;;;13.57;9.87;;;12.00;99.90;;;;;;5034020;28;20176;-71
2022/10/21 08:38:02;;;;;;;17.10;10.27;;;12.20;99.90;;;;;;5036865;28;20781;-71
2022/10/21 08:40:35;;;;;;;13.43;10.40;;;12.30;99.90;;;;;;5056468;28;20287;-71
2022/10/21 08:43:23;;;;;;;13.73;9.37;;;12.30;99.90;;;;;;5053144;28;20218;-71
2022/10/21 08:45:56;;;;;;;13.83;9.13;;;12.60;99.90;;;;;;5053925;28;20226;-70
2022/10/21 08:48:30;;;;;;;13.27;9.70;;;12.60;99.90;;;;;;5052294;28;20624;-71
2022/10/21 08:50:57;;;;;;;16.33;10.00;;;12.70;99.90;;;;;;5034640;28;20207;-71
2022/10/21 08:53:31;;;;;;;12.50;9.37;;;12.80;99.90;;;;;;5051208;28;20292;-70
2022/10/21 08:56:12;;;;;;;15.90;10.17;;;12.90;99.90;;;;;;5057061;28;20211;-71
2022/10/21 08:58:37;;;;;;;13.43;9.30;;;13.20;99.90;;;;;;5032199;28;20578;-71
2022/10/21 09:01:29;;;;;;;15.00;9.43;;;13.20;99.90;;;;;;5052764;28;20219;-71
2022/10/21 09:04:19;;;;;;;12.90;9.53;;;13.40;99.90;;;;;;5049749;28;20219;-71
2022/10/21 09:06:54;;;;;;;10.73;8.70;;;13.50;99.90;;;;;;5051116;28;20639;-71
2022/10/21 09:09:31;;;;;;;16.03;10.17;;;13.30;99.90;;;;;;5038653;28;20689;-71
2022/10/21 09:12:12;;;;;;;13.97;10.23;;;13.10;99.90;;;;;;5050941;28;20245;-71
2022/10/21 09:15:02;;;;;;;14.07;10.27;;;13.20;99.90;;;;;;5050706;28;20332;-71
2022/10/21 09:18:01;;;;;;;11.67;8.50;;;13.10;99.90;;;;;;5051866;28;20674;-71
2022/10/21 09:20:39;;;;;;;14.90;9.97;;;13.20;99.90;;;;;;5054547;28;20290;-71
2022/10/21 09:23:24;;;;;;;15.87;10.37;;;13.20;99.90;;;;;;5041806;28;20223;-71
2022/10/21 09:25:53;;;;;;;14.80;10.23;;;13.30;99.90;;;;;;5036311;28;20200;-71
2022/10/21 09:28:18;;;;;;;11.40;9.07;;;14.00;99.90;;;;;;5056464;28;20290;-71
2022/10/21 09:30:44;;;;;;;15.07;10.23;;;14.40;99.90;;;;;;5039944;28;20706;-71
2022/10/21 09:33:20;;;;;;;17.90;10.03;;;14.40;99.90;;;;;;5057662;28;20214;-71
2022/10/21 09:35:50;;;;;;;14.63;9.90;;;14.50;99.90;;;;;;5053981;28;20176;-70
2022/10/21 09:38:22;;;;;;;14.98;9.52;;;14.30;99.90;;;;;;5041379;28;20178;-71
2022/10/21 09:40:57;;;;;;;15.60;9.53;;;14.30;99.90;;;;;;5039045;28;20234;-71
2022/10/21 09:43:25;;;;;;;13.63;10.17;;;14.10;99.90;;;;;;5053881;28;20218;-72
2022/10/21 09:45:50;;;;;;;11.43;9.23;;;14.30;99.90;;;;;;5056805;28;20200;-71
2022/10/21 09:48:16;;;;;;;13.65;10.00;;;14.30;99.90;;;;;;5065245;28;20203;-71
2022/10/21 09:50:47;;;;;;;14.30;9.25;;;14.30;99.90;;;;;;5037689;28;20188;-72
2022/10/21 09:53:41;;;;;;;11.25;9.52;;;14.40;99.90;;;;;;5054504;28;20187;-71
2022/10/21 09:56:13;;;;;;;36.35;24.10;;;14.60;99.90;;;;;;5055168;28;20212;-71
2022/10/21 09:58:42;;;;;;;15.07;9.60;;;14.70;99.90;;;;;;5035145;28;20741;-72
2022/10/21 10:01:07;;;;;;;13.05;9.40;;;14.50;99.90;;;;;;5055507;28;20283;-71
2022/10/21 10:03:35;;;;;;;14.60;9.50;;;14.60;99.90;;;;;;5059362;28;20219;-69
2022/10/21 10:06:03;;;;;;;14.90;9.23;;;14.40;99.90;;;;;;5051154;28;20222;-71
2022/10/21 10:08:33;;;;;;;14.50;9.33;;;14.30;99.90;;;;;;5070297;28;20180;-71
2022/10/21 10:11:04;;;;;;;14.02;9.38;;;14.60;99.90;;;;;;5060239;28;20208;-72
2022/10/21 10:13:30;;;;;;;15.97;10.20;;;14.70;99.90;;;;;;5059364;28;20206;-71
2022/10/21 10:16:21;;;;;;;13.13;9.48;;;14.80;99.90;;;;;;5056011;28;20751;-71
2022/10/21 10:18:49;;;;;;;11.05;8.77;;;14.70;99.90;;;;;;5052280;28;20215;-69
2022/10/21 10:21:17;;;;;;;12.00;9.80;;;14.80;99.90;;;;;;5057589;28;20721;-70
2022/10/21 10:23:54;;;;;;;14.13;9.00;;;15.00;99.90;;;;;;5056047;28;20235;-70
2022/10/21 10:26:27;;;;;;;13.02;9.70;;;15.10;99.90;;;;;;5052828;28;20175;-71
2022/10/21 10:28:57;;;;;;;15.20;9.40;;;15.10;99.90;;;;;;5052816;28;20211;-70
2022/10/21 10:31:26;;;;;;;12.90;9.35;;;15.00;99.90;;;;;;5053970;28;20751;-70
2022/10/21 10:33:55;;;;;;;12.68;9.50;;;15.20;99.90;;;;;;5055227;28;20350;-71
2022/10/21 10:36:29;;;;;;;14.02;9.55;;;15.10;99.90;;;;;;5052354;28;20245;-71
2022/10/21 10:38:57;;;;;;;13.70;10.07;;;15.20;99.90;;;;;;5040547;28;20179;-71
2022/10/21 10:41:30;;;;;;;16.75;9.45;;;15.20;99.90;;;;;;5039406;28;20216;-71
2022/10/21 10:43:56;;;;;;;12.27;9.93;;;15.30;99.90;;;;;;5035455;28;20207;-71
2022/10/21 10:46:31;;;;;;;13.73;9.80;;;15.50;99.90;;;;;;5040467;28;20264;-71
2022/10/21 10:49:14;;;;;;;10.63;9.10;;;15.60;99.90;;;;;;5039930;28;20591;-71
2022/10/21 10:51:41;;;;;;;17.30;10.05;;;15.40;99.90;;;;;;5048461;28;20228;-71
2022/10/21 10:54:27;;;;;;;14.63;11.25;;;15.20;99.90;;;;;;5037686;28;20265;-71
2022/10/21 10:57:03;;;;;;;12.52;9.40;;;15.30;99.90;;;;;;5055125;28;20178;-69
2022/10/21 10:59:38;;;;;;;12.55;9.63;;;15.40;99.90;;;;;;5056893;28;20179;-71
2022/10/21 11:02:24;;;;;;;14.88;9.65;;;15.30;99.90;;;;;;5052489;28;20211;-70
2022/10/21 11:05:19;;;;;;;13.40;8.77;;;15.60;99.90;;;;;;5036880;28;20733;-70
2022/10/21 11:07:50;;;;;;;13.25;9.18;;;15.90;99.90;;;;;;5036632;28;20237;-71
2022/10/21 11:10:27;;;;;;;13.07;8.85;;;15.90;99.90;;;;;;5053667;28;20290;-70
2022/10/21 11:12:53;;;;;;;11.07;8.48;;;15.90;99.90;;;;;;5055536;28;20268;-71
2022/10/21 11:15:30;;;;;;;15.18;8.80;;;15.70;99.90;;;;;;5058321;28;20210;-71
2022/10/21 11:18:01;;;;;;;11.55;8.55;;;15.70;99.90;;;;;;5054025;28;20522;-76
2022/10/21 11:20:47;;;;;;;11.38;8.85;;;15.70;99.90;;;;;;5052383;28;20272;-71
2022/10/21 11:23:37;;;;;;;13.30;8.40;;;15.70;99.90;;;;;;5059359;28;20225;-70
2022/10/21 11:26:18;;;;;;;12.77;8.43;;;15.60;99.90;;;;;;5035089;28;20211;-71
2022/10/21 11:28:53;;;;;;;14.65;9.27;;;15.40;99.90;;;;;;5037192;28;20234;-70
2022/10/21 11:31:39;;;;;;;12.18;9.05;;;15.40;99.90;;;;;;5035645;28;20294;-70
2022/10/21 11:34:18;;;;;;;13.25;9.70;;;15.30;99.90;;;;;;5030782;28;20241;-71
2022/10/21 11:37:15;;;;;;;12.65;9.52;;;15.50;99.90;;;;;;5053069;28;20238;-71
2022/10/21 11:39:44;;;;;;;17.58;8.63;;;15.70;99.90;;;;;;5056551;28;20716;-71
2022/10/21 11:42:31;;;;;;;12.00;9.40;;;15.60;99.90;;;;;;5050348;28;20219;-71
2022/10/21 11:45:02;;;;;;;16.58;10.07;;;15.70;99.90;;;;;;5024905;28;20222;-71
2022/10/21 11:47:41;;;;;;;16.80;9.82;;;15.80;99.90;;;;;;5060800;28;20220;-71
2022/10/21 11:50:31;;;;;;;14.57;9.75;;;15.80;99.90;;;;;;5039750;28;20669;-71
2022/10/21 11:53:11;;;;;;;13.30;8.90;;;15.80;99.90;;;;;;5050352;28;20230;-72
2022/10/21 11:55:51;;;;;;;12.80;8.30;;;16.00;99.90;;;;;;5058290;28;20265;-71
2022/10/21 11:58:42;;;;;;;13.00;9.32;;;16.00;99.90;;;;;;5036115;28;20216;-71
2022/10/21 12:01:23;;;;;;;11.30;8.82;;;16.10;99.90;;;;;;5054230;28;20211;-72
2022/10/21 12:04:09;;;;;;;11.95;9.23;;;16.10;99.90;;;;;;5058958;28;20661;-71
2022/10/21 12:06:57;;;;;;;12.93;8.93;;;16.10;99.90;;;;;;5055479;28;20620;-71
2022/10/21 12:09:33;;;;;;;13.88;9.00;;;16.10;99.90;;;;;;5052238;28;20203;-71
2022/10/21 12:12:12;;;;;;;14.35;8.63;;;16.20;99.90;;;;;;5053317;28;20298;-71
2022/10/21 12:14:53;;;;;;;12.98;9.60;;;16.20;99.90;;;;;;5039372;28;20175;-72
2022/10/21 12:17:21;;;;;;;12.93;8.52;;;16.20;99.90;;;;;;5052250;28;20182;-71
2022/10/21 12:20:00;;;;;;;11.75;9.77;;;16.20;99.90;;;;;;5051569;28;20585;-71
2022/10/21 12:22:29;;;;;;;14.82;10.35;;;16.10;99.90;;;;;;5054285;28;20217;-71
2022/10/21 12:25:15;;;;;;;13.13;9.30;;;16.10;99.90;;;;;;5054976;28;20219;-70
2022/10/21 12:27:48;;;;;;;12.57;10.07;;;16.00;99.90;;;;;;5054185;28;20294;-71
2022/10/21 12:30:21;;;;;;;13.98;9.60;;;16.00;99.90;;;;;;5057267;28;20268;-71
2022/10/21 12:32:52;;;;;;;12.45;9.88;;;16.00;99.90;;;;;;5055810;28;20195;-71
2022/10/21 12:35:27;;;;;;;16.90;10.57;;;15.90;99.90;;;;;;5051522;28;20250;-71
2022/10/21 12:37:52;;;;;;;13.32;10.05;;;15.90;99.90;;;;;;5054567;28;20207;-70
2022/10/21 12:40:24;;;;;;;17.75;10.55;;;15.80;99.90;;;;;;5053698;28;20205;-71
2022/10/21 12:43:02;;;;;;;11.43;9.40;;;15.80;99.90;;;;;;5053553;28;20731;-71
2022/10/21 12:45:30;;;;;;;16.92;10.23;;;15.70;99.90;;;;;;5055155;28;20207;-71
2022/10/21 12:47:57;;;;;;;12.63;9.95;;;15.70;99.90;;;;;;5056618;28;20219;-71
2022/10/21 12:50:30;;;;;;;13.38;10.32;;;15.70;99.90;;;;;;5055669;28;20167;-71
2022/10/21 12:55:40;;;;;;;13.65;10.10;;;15.80;99.90;;;;;;5030215;28;20259;-69
2022/10/21 12:58:29;;;;;;;11.55;8.90;;;15.90;99.90;;;;;;5031241;28;20208;-69